sensor_id;sensor_type;location;lat;lon;timestamp;pressure;altitude;pressure_sealevel;temperature;humidity
60676;BME280;46716;38.014;-7.874;2022-08-21T00:00:58;100136.00;;;24.09;48.62
60676;BME280;46716;38.014;-7.874;2022-08-21T00:03:16;100146.22;;;24.15;48.69
60676;BME280;46716;38.014;-7.874;2022-08-21T00:05:23;100142.97;;;24.11;48.60
60676;BME280;46716;38.014;-7.874;2022-08-21T00:07:29;100148.81;;;24.07;49.19
60676;BME280;46716;38.014;-7.874;2022-08-21T00:10:19;100140.63;;;23.98;49.73
60676;BME280;46716;38.014;-7.874;2022-08-21T00:12:38;100148.03;;;23.96;49.98
60676;BME280;46716;38.014;-7.874;2022-08-21T00:15:02;100141.56;;;23.89;50.35
60676;BME280;46716;38.014;-7.874;2022-08-21T00:17:25;100141.59;;;23.79;50.93
60676;BME280;46716;38.014;-7.874;2022-08-21T00:19:29;100138.53;;;23.74;50.98
60676;BME280;46716;38.014;-7.874;2022-08-21T00:21:30;100116.78;;;23.57;51.55
60676;BME280;46716;38.014;-7.874;2022-08-21T00:23:33;100131.66;;;23.61;51.59
60676;BME280;46716;38.014;-7.874;2022-08-21T00:25:34;100134.09;;;23.55;51.82
60676;BME280;46716;38.014;-7.874;2022-08-21T00:27:36;100135.22;;;23.52;52.32
60676;BME280;46716;38.014;-7.874;2022-08-21T00:29:41;100133.00;;;23.47;52.78
60676;BME280;46716;38.014;-7.874;2022-08-21T00:31:44;100116.88;;;23.37;52.77
60676;BME280;46716;38.014;-7.874;2022-08-21T00:33:45;100117.88;;;23.36;53.21
60676;BME280;46716;38.014;-7.874;2022-08-21T00:35:47;100121.41;;;23.37;53.18
60676;BME280;46716;38.014;-7.874;2022-08-21T00:37:53;100120.41;;;23.28;53.70
60676;BME280;46716;38.014;-7.874;2022-08-21T00:39:54;100120.88;;;23.23;53.99
60676;BME280;46716;38.014;-7.874;2022-08-21T00:41:59;100127.53;;;23.29;54.00
60676;BME280;46716;38.014;-7.874;2022-08-21T00:44:02;100116.47;;;23.22;54.28
60676;BME280;46716;38.014;-7.874;2022-08-21T00:46:05;100123.16;;;23.18;54.59
60676;BME280;46716;38.014;-7.874;2022-08-21T00:48:08;100120.06;;;23.13;54.83
60676;BME280;46716;38.014;-7.874;2022-08-21T00:50:14;100123.75;;;23.12;54.89
60676;BME280;46716;38.014;-7.874;2022-08-21T00:52:24;100121.50;;;23.07;55.00
60676;BME280;46716;38.014;-7.874;2022-08-21T00:54:27;100119.25;;;23.03;55.42
60676;BME280;46716;38.014;-7.874;2022-08-21T00:56:29;100113.59;;;22.96;55.29
60676;BME280;46716;38.014;-7.874;2022-08-21T00:58:31;100098.19;;;22.88;55.51
60676;BME280;46716;38.014;-7.874;2022-08-21T01:00:35;100098.31;;;22.86;55.69
60676;BME280;46716;38.014;-7.874;2022-08-21T01:02:39;100100.88;;;22.88;55.83
60676;BME280;46716;38.014;-7.874;2022-08-21T01:04:40;100101.16;;;22.85;56.28
60676;BME280;46716;38.014;-7.874;2022-08-21T01:07:10;100108.84;;;22.80;56.51
60676;BME280;46716;38.014;-7.874;2022-08-21T01:09:11;100112.09;;;22.73;56.84
60676;BME280;46716;38.014;-7.874;2022-08-21T01:11:17;100102.06;;;22.66;56.82
60676;BME280;46716;38.014;-7.874;2022-08-21T01:13:22;100097.25;;;22.59;57.09
60676;BME280;46716;38.014;-7.874;2022-08-21T01:15:54;100102.34;;;22.63;57.45
60676;BME280;46716;38.014;-7.874;2022-08-21T01:17:58;100101.78;;;22.59;57.61
60676;BME280;46716;38.014;-7.874;2022-08-21T01:20:00;100101.47;;;22.52;57.77
60676;BME280;46716;38.014;-7.874;2022-08-21T01:22:10;100102.91;;;22.46;58.27
60676;BME280;46716;38.014;-7.874;2022-08-21T01:24:11;100109.28;;;22.45;58.15
60676;BME280;46716;38.014;-7.874;2022-08-21T01:26:15;100092.84;;;22.39;58.29
60676;BME280;46716;38.014;-7.874;2022-08-21T01:28:21;100098.09;;;22.40;58.30
60676;BME280;46716;38.014;-7.874;2022-08-21T01:30:25;100093.13;;;22.35;58.23
60676;BME280;46716;38.014;-7.874;2022-08-21T01:32:27;100103.47;;;22.40;58.41
60676;BME280;46716;38.014;-7.874;2022-08-21T01:34:28;100097.69;;;22.35;58.36
60676;BME280;46716;38.014;-7.874;2022-08-21T01:36:29;100100.22;;;22.36;58.27
60676;BME280;46716;38.014;-7.874;2022-08-21T01:38:30;100092.59;;;22.32;58.44
60676;BME280;46716;38.014;-7.874;2022-08-21T01:40:31;100088.91;;;22.23;58.71
60676;BME280;46716;38.014;-7.874;2022-08-21T01:42:32;100094.97;;;22.25;59.19
60676;BME280;46716;38.014;-7.874;2022-08-21T01:44:33;100071.78;;;22.04;59.47
60676;BME280;46716;38.014;-7.874;2022-08-21T01:46:35;100097.97;;;22.12;59.72
60676;BME280;46716;38.014;-7.874;2022-08-21T01:48:36;100096.69;;;22.06;59.98
60676;BME280;46716;38.014;-7.874;2022-08-21T01:50:37;100079.41;;;21.89;59.77
60676;BME280;46716;38.014;-7.874;2022-08-21T01:52:58;100094.44;;;21.92;59.62
60676;BME280;46716;38.014;-7.874;2022-08-21T01:55:40;100098.66;;;21.84;59.81
60676;BME280;46716;38.014;-7.874;2022-08-21T01:57:41;100102.59;;;21.80;60.19
60676;BME280;46716;38.014;-7.874;2022-08-21T01:59:43;100080.66;;;21.65;60.49
60676;BME280;46716;38.014;-7.874;2022-08-21T02:01:56;100082.34;;;21.66;60.80
60676;BME280;46716;38.014;-7.874;2022-08-21T02:04:01;100094.06;;;21.65;60.78
60676;BME280;46716;38.014;-7.874;2022-08-21T02:06:14;100093.78;;;21.68;61.14
60676;BME280;46716;38.014;-7.874;2022-08-21T02:08:37;100093.22;;;21.55;61.18
60676;BME280;46716;38.014;-7.874;2022-08-21T02:10:41;100110.19;;;21.65;61.42
60676;BME280;46716;38.014;-7.874;2022-08-21T02:12:48;100088.09;;;21.52;61.29
60676;BME280;46716;38.014;-7.874;2022-08-21T02:14:57;100086.94;;;21.44;61.38
60676;BME280;46716;38.014;-7.874;2022-08-21T02:17:09;100103.66;;;21.58;61.37
60676;BME280;46716;38.014;-7.874;2022-08-21T02:19:14;100108.06;;;21.59;61.52
60676;BME280;46716;38.014;-7.874;2022-08-21T02:21:16;100102.50;;;21.51;61.44
60676;BME280;46716;38.014;-7.874;2022-08-21T02:23:17;100094.28;;;21.42;61.61
60676;BME280;46716;38.014;-7.874;2022-08-21T02:25:22;100110.69;;;21.49;61.69
60676;BME280;46716;38.014;-7.874;2022-08-21T02:27:25;100111.81;;;21.46;61.87
60676;BME280;46716;38.014;-7.874;2022-08-21T02:29:26;100100.94;;;21.38;61.64
60676;BME280;46716;38.014;-7.874;2022-08-21T02:31:38;100122.84;;;21.43;61.82
60676;BME280;46716;38.014;-7.874;2022-08-21T02:33:39;100111.94;;;21.35;61.94
60676;BME280;46716;38.014;-7.874;2022-08-21T02:35:41;100120.25;;;21.32;61.94
60676;BME280;46716;38.014;-7.874;2022-08-21T02:38:06;100116.97;;;21.18;62.30
60676;BME280;46716;38.014;-7.874;2022-08-21T02:40:10;100109.44;;;21.12;62.60
60676;BME280;46716;38.014;-7.874;2022-08-21T02:42:11;100107.13;;;20.97;62.90
60676;BME280;46716;38.014;-7.874;2022-08-21T02:44:15;100109.47;;;20.91;63.23
60676;BME280;46716;38.014;-7.874;2022-08-21T02:46:19;100120.06;;;20.92;63.29
60676;BME280;46716;38.014;-7.874;2022-08-21T02:48:28;100116.91;;;20.87;63.29
60676;BME280;46716;38.014;-7.874;2022-08-21T02:50:37;100112.19;;;20.79;63.57
60676;BME280;46716;38.014;-7.874;2022-08-21T02:52:38;100122.06;;;20.79;63.89
60676;BME280;46716;38.014;-7.874;2022-08-21T02:54:42;100111.41;;;20.67;63.94
60676;BME280;46716;38.014;-7.874;2022-08-21T02:56:43;100119.94;;;20.72;63.96
60676;BME280;46716;38.014;-7.874;2022-08-21T02:58:48;100109.00;;;20.64;63.88
60676;BME280;46716;38.014;-7.874;2022-08-21T03:00:51;100122.88;;;20.69;64.20
60676;BME280;46716;38.014;-7.874;2022-08-21T03:02:53;100120.19;;;20.69;64.20
60676;BME280;46716;38.014;-7.874;2022-08-21T03:04:54;100104.03;;;20.59;64.05
60676;BME280;46716;38.014;-7.874;2022-08-21T03:06:55;100104.28;;;20.56;64.46
60676;BME280;46716;38.014;-7.874;2022-08-21T03:08:56;100094.94;;;20.51;64.30
60676;BME280;46716;38.014;-7.874;2022-08-21T03:10:58;100112.19;;;20.58;64.04
60676;BME280;46716;38.014;-7.874;2022-08-21T03:13:05;100112.44;;;20.55;64.46
60676;BME280;46716;38.014;-7.874;2022-08-21T03:15:23;100104.16;;;20.37;64.58
60676;BME280;46716;38.014;-7.874;2022-08-21T03:17:24;100118.00;;;20.42;64.74
60676;BME280;46716;38.014;-7.874;2022-08-21T03:19:25;100125.94;;;20.43;64.75
60676;BME280;46716;38.014;-7.874;2022-08-21T03:21:26;100101.88;;;20.32;64.63
60676;BME280;46716;38.014;-7.874;2022-08-21T03:23:29;100119.13;;;20.39;64.84
60676;BME280;46716;38.014;-7.874;2022-08-21T03:25:32;100095.56;;;20.21;65.00
60676;BME280;46716;38.014;-7.874;2022-08-21T03:27:47;100117.94;;;20.32;65.30
60676;BME280;46716;38.014;-7.874;2022-08-21T03:29:49;100111.53;;;20.23;65.24
60676;BME280;46716;38.014;-7.874;2022-08-21T03:31:50;100098.28;;;20.10;65.68
60676;BME280;46716;38.014;-7.874;2022-08-21T03:33:54;100106.81;;;20.15;65.56
60676;BME280;46716;38.014;-7.874;2022-08-21T03:36:15;100118.97;;;20.19;65.65
60676;BME280;46716;38.014;-7.874;2022-08-21T03:38:17;100110.97;;;20.08;65.88
60676;BME280;46716;38.014;-7.874;2022-08-21T03:40:23;100118.03;;;20.09;65.74
60676;BME280;46716;38.014;-7.874;2022-08-21T03:42:31;100110.97;;;20.08;66.02
60676;BME280;46716;38.014;-7.874;2022-08-21T03:44:34;100115.59;;;20.06;66.08
60676;BME280;46716;38.014;-7.874;2022-08-21T03:46:36;100107.94;;;20.01;66.13
60676;BME280;46716;38.014;-7.874;2022-08-21T03:48:38;100108.03;;;20.00;66.12
60676;BME280;46716;38.014;-7.874;2022-08-21T03:50:41;100095.53;;;19.89;66.19
60676;BME280;46716;38.014;-7.874;2022-08-21T03:52:42;100098.34;;;19.87;66.19
60676;BME280;46716;38.014;-7.874;2022-08-21T03:54:44;100113.06;;;19.93;66.06
60676;BME280;46716;38.014;-7.874;2022-08-21T03:56:48;100118.91;;;19.87;65.81
60676;BME280;46716;38.014;-7.874;2022-08-21T03:58:54;100116.38;;;19.85;66.34
60676;BME280;46716;38.014;-7.874;2022-08-21T04:01:15;100087.44;;;19.67;66.55
60676;BME280;46716;38.014;-7.874;2022-08-21T04:03:18;100104.94;;;19.71;66.51
60676;BME280;46716;38.014;-7.874;2022-08-21T04:05:20;100106.25;;;19.77;66.70
60676;BME280;46716;38.014;-7.874;2022-08-21T04:07:27;100106.66;;;19.73;66.98
60676;BME280;46716;38.014;-7.874;2022-08-21T04:09:34;100114.72;;;19.73;66.96
60676;BME280;46716;38.014;-7.874;2022-08-21T04:11:35;100107.28;;;19.65;67.02
60676;BME280;46716;38.014;-7.874;2022-08-21T04:13:37;100104.97;;;19.60;67.10
60676;BME280;46716;38.014;-7.874;2022-08-21T04:15:41;100109.47;;;19.59;66.96
60676;BME280;46716;38.014;-7.874;2022-08-21T04:17:43;100104.25;;;19.46;67.05
60676;BME280;46716;38.014;-7.874;2022-08-21T04:19:44;100110.34;;;19.49;67.18
60676;BME280;46716;38.014;-7.874;2022-08-21T04:21:47;100104.63;;;19.42;67.19
60676;BME280;46716;38.014;-7.874;2022-08-21T04:23:47;100107.09;;;19.33;67.29
60676;BME280;46716;38.014;-7.874;2022-08-21T04:25:48;100108.16;;;19.31;67.61
60676;BME280;46716;38.014;-7.874;2022-08-21T04:27:49;100096.47;;;19.20;67.72
60676;BME280;46716;38.014;-7.874;2022-08-21T04:29:51;100114.84;;;19.25;67.75
60676;BME280;46716;38.014;-7.874;2022-08-21T04:31:52;100107.06;;;19.22;67.89
60676;BME280;46716;38.014;-7.874;2022-08-21T04:33:53;100104.63;;;19.19;68.32
60676;BME280;46716;38.014;-7.874;2022-08-21T04:35:54;100086.09;;;19.04;68.34
60676;BME280;46716;38.014;-7.874;2022-08-21T04:37:55;100094.88;;;19.06;68.29
60676;BME280;46716;38.014;-7.874;2022-08-21T04:39:55;100104.38;;;19.11;68.54
60676;BME280;46716;38.014;-7.874;2022-08-21T04:41:58;100094.25;;;19.03;68.61
60676;BME280;46716;38.014;-7.874;2022-08-21T04:43:58;100094.72;;;18.96;68.54
60676;BME280;46716;38.014;-7.874;2022-08-21T04:45:59;100104.72;;;18.94;68.66
60676;BME280;46716;38.014;-7.874;2022-08-21T04:48:03;100103.84;;;18.94;68.59
60676;BME280;46716;38.014;-7.874;2022-08-21T04:50:05;100083.56;;;18.80;68.71
60676;BME280;46716;38.014;-7.874;2022-08-21T04:52:06;100093.88;;;18.84;68.94
60676;BME280;46716;38.014;-7.874;2022-08-21T04:54:12;100103.00;;;18.82;69.23
60676;BME280;46716;38.014;-7.874;2022-08-21T04:56:21;100102.28;;;18.80;69.46
60676;BME280;46716;38.014;-7.874;2022-08-21T04:58:26;100102.41;;;18.78;69.86
60676;BME280;46716;38.014;-7.874;2022-08-21T05:00:27;100080.84;;;18.68;69.89
60676;BME280;46716;38.014;-7.874;2022-08-21T05:02:28;100092.41;;;18.69;70.16
60676;BME280;46716;38.014;-7.874;2022-08-21T05:04:32;100081.31;;;18.62;70.12
60676;BME280;46716;38.014;-7.874;2022-08-21T05:06:35;100094.44;;;18.65;70.09
60676;BME280;46716;38.014;-7.874;2022-08-21T05:08:38;100090.31;;;18.61;70.23
60676;BME280;46716;38.014;-7.874;2022-08-21T05:10:40;100091.63;;;18.55;70.44
60676;BME280;46716;38.014;-7.874;2022-08-21T05:12:42;100098.91;;;18.53;70.48
60676;BME280;46716;38.014;-7.874;2022-08-21T05:14:46;100114.72;;;18.56;70.50
60676;BME280;46716;38.014;-7.874;2022-08-21T05:16:47;100113.25;;;18.52;70.38
60676;BME280;46716;38.014;-7.874;2022-08-21T05:18:48;100111.63;;;18.38;70.76
60676;BME280;46716;38.014;-7.874;2022-08-21T05:20:52;100116.84;;;18.40;70.80
60676;BME280;46716;38.014;-7.874;2022-08-21T05:22:53;100110.38;;;18.31;71.06
60676;BME280;46716;38.014;-7.874;2022-08-21T05:24:54;100106.25;;;18.27;71.14
60676;BME280;46716;38.014;-7.874;2022-08-21T05:26:55;100122.16;;;18.28;71.53
60676;BME280;46716;38.014;-7.874;2022-08-21T05:28:56;100117.63;;;18.17;71.62
60676;BME280;46716;38.014;-7.874;2022-08-21T05:30:57;100111.97;;;18.09;72.11
60676;BME280;46716;38.014;-7.874;2022-08-21T05:33:10;100127.34;;;18.18;72.13
60676;BME280;46716;38.014;-7.874;2022-08-21T05:35:11;100127.13;;;18.08;72.49
60676;BME280;46716;38.014;-7.874;2022-08-21T05:37:12;100109.38;;;17.96;72.51
60676;BME280;46716;38.014;-7.874;2022-08-21T05:39:13;100132.09;;;18.02;72.71
60676;BME280;46716;38.014;-7.874;2022-08-21T05:41:14;100144.69;;;18.00;73.24
60676;BME280;46716;38.014;-7.874;2022-08-21T05:43:18;100140.56;;;17.95;73.38
60676;BME280;46716;38.014;-7.874;2022-08-21T05:45:32;100135.78;;;17.88;73.66
60676;BME280;46716;38.014;-7.874;2022-08-21T05:47:33;100143.88;;;17.86;73.68
60676;BME280;46716;38.014;-7.874;2022-08-21T05:49:34;100149.56;;;17.81;74.08
60676;BME280;46716;38.014;-7.874;2022-08-21T05:51:36;100139.84;;;17.80;74.11
60676;BME280;46716;38.014;-7.874;2022-08-21T05:53:38;100156.75;;;17.81;74.21
60676;BME280;46716;38.014;-7.874;2022-08-21T05:55:40;100145.63;;;17.74;74.39
60676;BME280;46716;38.014;-7.874;2022-08-21T05:57:41;100155.03;;;17.80;74.36
60676;BME280;46716;38.014;-7.874;2022-08-21T05:59:42;100157.56;;;17.81;74.50
60676;BME280;46716;38.014;-7.874;2022-08-21T06:01:44;100155.03;;;17.80;74.54
60676;BME280;46716;38.014;-7.874;2022-08-21T06:03:46;100157.47;;;17.83;74.48
60676;BME280;46716;38.014;-7.874;2022-08-21T06:05:47;100158.16;;;17.74;74.52
60676;BME280;46716;38.014;-7.874;2022-08-21T06:07:48;100141.09;;;17.63;74.75
60676;BME280;46716;38.014;-7.874;2022-08-21T06:09:49;100157.63;;;17.68;74.71
60676;BME280;46716;38.014;-7.874;2022-08-21T06:11:50;100160.28;;;17.68;74.60
60676;BME280;46716;38.014;-7.874;2022-08-21T06:13:51;100154.44;;;17.63;74.74
60676;BME280;46716;38.014;-7.874;2022-08-21T06:16:16;100146.88;;;17.57;75.44
60676;BME280;46716;38.014;-7.874;2022-08-21T06:18:17;100154.44;;;17.63;75.28
60676;BME280;46716;38.014;-7.874;2022-08-21T06:20:18;100144.59;;;17.64;75.64
60676;BME280;46716;38.014;-7.874;2022-08-21T06:22:20;100151.31;;;17.69;75.44
60676;BME280;46716;38.014;-7.874;2022-08-21T06:24:21;100150.13;;;17.74;75.52
60676;BME280;46716;38.014;-7.874;2022-08-21T06:26:22;100162.69;;;17.85;75.39
60676;BME280;46716;38.014;-7.874;2022-08-21T06:28:24;100146.28;;;17.78;75.18
60676;BME280;46716;38.014;-7.874;2022-08-21T06:30:24;100163.22;;;17.90;75.37
60676;BME280;46716;38.014;-7.874;2022-08-21T06:32:25;100167.16;;;17.97;75.20
60676;BME280;46716;38.014;-7.874;2022-08-21T06:34:31;100169.50;;;18.02;75.14
60676;BME280;46716;38.014;-7.874;2022-08-21T06:36:37;100161.59;;;18.00;74.93
60676;BME280;46716;38.014;-7.874;2022-08-21T06:38:38;100162.44;;;18.14;74.59
60676;BME280;46716;38.014;-7.874;2022-08-21T06:40:39;100171.59;;;18.23;74.47
60676;BME280;46716;38.014;-7.874;2022-08-21T06:42:40;100151.91;;;18.24;74.00
60676;BME280;46716;38.014;-7.874;2022-08-21T06:44:42;100162.56;;;18.37;73.92
60676;BME280;46716;38.014;-7.874;2022-08-21T06:46:43;100166.84;;;18.51;73.77
60676;BME280;46716;38.014;-7.874;2022-08-21T06:48:44;100158.03;;;18.62;73.52
60676;BME280;46716;38.014;-7.874;2022-08-21T06:50:45;100144.19;;;18.68;72.94
60676;BME280;46716;38.014;-7.874;2022-08-21T06:53:13;100166.50;;;19.03;72.01
60676;BME280;46716;38.014;-7.874;2022-08-21T06:55:14;100146.69;;;19.05;71.26
60676;BME280;46716;38.014;-7.874;2022-08-21T06:57:17;100155.63;;;19.29;70.39
60676;BME280;46716;38.014;-7.874;2022-08-21T06:59:18;100153.28;;;19.36;69.51
60676;BME280;46716;38.014;-7.874;2022-08-21T07:01:21;100171.94;;;19.60;68.58
60676;BME280;46716;38.014;-7.874;2022-08-21T07:03:31;100152.06;;;19.63;67.74
60676;BME280;46716;38.014;-7.874;2022-08-21T07:05:34;100157.91;;;19.79;67.57
60676;BME280;46716;38.014;-7.874;2022-08-21T07:07:36;100138.66;;;19.86;66.95
60676;BME280;46716;38.014;-7.874;2022-08-21T07:09:38;100164.31;;;20.11;66.80
60676;BME280;46716;38.014;-7.874;2022-08-21T07:11:39;100149.19;;;20.21;66.24
60676;BME280;46716;38.014;-7.874;2022-08-21T07:13:40;100141.59;;;20.27;65.35
60676;BME280;46716;38.014;-7.874;2022-08-21T07:15:41;100156.06;;;20.35;64.79
60676;BME280;46716;38.014;-7.874;2022-08-21T07:17:42;100158.16;;;20.53;64.82
60676;BME280;46716;38.014;-7.874;2022-08-21T07:19:42;100163.13;;;20.69;64.61
60676;BME280;46716;38.014;-7.874;2022-08-21T07:21:43;100156.69;;;20.82;63.73
60676;BME280;46716;38.014;-7.874;2022-08-21T07:23:49;100163.00;;;20.92;63.42
60676;BME280;46716;38.014;-7.874;2022-08-21T07:25:50;100159.09;;;20.96;62.70
60676;BME280;46716;38.014;-7.874;2022-08-21T07:27:52;100163.22;;;21.01;61.93
60676;BME280;46716;38.014;-7.874;2022-08-21T07:29:53;100172.44;;;21.08;61.97
60676;BME280;46716;38.014;-7.874;2022-08-21T07:31:58;100178.09;;;21.15;61.86
60676;BME280;46716;38.014;-7.874;2022-08-21T07:33:59;100167.09;;;21.18;61.77
60676;BME280;46716;38.014;-7.874;2022-08-21T07:36:03;100174.22;;;21.29;61.32
60676;BME280;46716;38.014;-7.874;2022-08-21T07:38:04;100168.72;;;21.30;61.40
60676;BME280;46716;38.014;-7.874;2022-08-21T07:40:05;100169.03;;;21.37;61.30
60676;BME280;46716;38.014;-7.874;2022-08-21T07:42:06;100173.78;;;21.55;61.04
60676;BME280;46716;38.014;-7.874;2022-08-21T07:44:07;100174.81;;;21.64;60.08
60676;BME280;46716;38.014;-7.874;2022-08-21T07:46:08;100173.13;;;21.72;59.71
60676;BME280;46716;38.014;-7.874;2022-08-21T07:48:08;100170.38;;;21.84;60.00
60676;BME280;46716;38.014;-7.874;2022-08-21T07:50:11;100167.13;;;21.90;59.73
60676;BME280;46716;38.014;-7.874;2022-08-21T07:52:12;100175.94;;;22.12;59.76
60676;BME280;46716;38.014;-7.874;2022-08-21T07:54:13;100162.50;;;22.12;59.04
60676;BME280;46716;38.014;-7.874;2022-08-21T07:56:14;100172.84;;;22.27;58.21
60676;BME280;46716;38.014;-7.874;2022-08-21T07:58:15;100178.50;;;22.43;58.14
60676;BME280;46716;38.014;-7.874;2022-08-21T08:00:19;100187.03;;;22.58;57.95
60676;BME280;46716;38.014;-7.874;2022-08-21T08:02:25;100166.09;;;22.62;57.86
60676;BME280;46716;38.014;-7.874;2022-08-21T08:04:26;100169.16;;;22.87;57.45
60676;BME280;46716;38.014;-7.874;2022-08-21T08:06:27;100171.81;;;23.07;56.97
60676;BME280;46716;38.014;-7.874;2022-08-21T08:08:28;100175.72;;;23.22;56.65
60676;BME280;46716;38.014;-7.874;2022-08-21T08:10:29;100172.44;;;23.39;56.25
60676;BME280;46716;38.014;-7.874;2022-08-21T08:12:29;100170.81;;;23.56;55.98
60676;BME280;46716;38.014;-7.874;2022-08-21T08:14:30;100159.97;;;23.66;54.76
60676;BME280;46716;38.014;-7.874;2022-08-21T08:16:31;100176.47;;;23.91;54.73
60676;BME280;46716;38.014;-7.874;2022-08-21T08:18:33;100165.31;;;24.04;54.29
60676;BME280;46716;38.014;-7.874;2022-08-21T08:20:34;100159.97;;;24.22;52.71
60676;BME280;46716;38.014;-7.874;2022-08-21T08:22:37;100172.44;;;24.41;51.54
60676;BME280;46716;38.014;-7.874;2022-08-21T08:24:39;100154.78;;;24.47;51.98
60676;BME280;46716;38.014;-7.874;2022-08-21T08:26:40;100172.53;;;24.76;51.66
60676;BME280;46716;38.014;-7.874;2022-08-21T08:28:41;100165.47;;;24.93;51.18
60676;BME280;46716;38.014;-7.874;2022-08-21T08:30:43;100148.19;;;25.12;50.91
60676;BME280;46716;38.014;-7.874;2022-08-21T08:32:44;100169.81;;;25.47;49.28
60676;BME280;46716;38.014;-7.874;2022-08-21T08:34:45;100146.53;;;25.55;48.97
60676;BME280;46716;38.014;-7.874;2022-08-21T08:36:49;100156.97;;;25.84;48.05
60676;BME280;46716;38.014;-7.874;2022-08-21T08:38:51;100148.38;;;25.97;47.56
60676;BME280;46716;38.014;-7.874;2022-08-21T08:41:27;100162.28;;;26.27;46.46
60676;BME280;46716;38.014;-7.874;2022-08-21T08:43:23;100166.56;;;26.38;46.09
60676;BME280;46716;38.014;-7.874;2022-08-21T08:45:24;100163.19;;;26.53;45.87
60676;BME280;46716;38.014;-7.874;2022-08-21T08:47:27;100163.50;;;26.75;45.71
60676;BME280;46716;38.014;-7.874;2022-08-21T08:49:37;100172.47;;;27.00;45.93
60676;BME280;46716;38.014;-7.874;2022-08-21T08:51:48;100171.72;;;27.32;44.94
60676;BME280;46716;38.014;-7.874;2022-08-21T08:54:16;100175.19;;;27.57;44.17
60676;BME280;46716;38.014;-7.874;2022-08-21T08:56:34;100176.28;;;27.88;43.79
60676;BME280;46716;38.014;-7.874;2022-08-21T08:58:41;100176.13;;;28.13;43.48
60676;BME280;46716;38.014;-7.874;2022-08-21T09:00:47;100170.94;;;28.26;41.89
60676;BME280;46716;38.014;-7.874;2022-08-21T09:02:55;100180.59;;;28.52;42.08
60676;BME280;46716;38.014;-7.874;2022-08-21T09:04:59;100172.63;;;28.74;41.76
60676;BME280;46716;38.014;-7.874;2022-08-21T09:09:38;100173.84;;;29.25;40.11
60676;BME280;46716;38.014;-7.874;2022-08-21T09:12:23;100170.84;;;29.50;39.84
60676;BME280;46716;38.014;-7.874;2022-08-21T09:17:29;100173.56;;;30.02;38.94
60676;BME280;46716;38.014;-7.874;2022-08-21T09:19:47;100177.22;;;30.32;38.77
60676;BME280;46716;38.014;-7.874;2022-08-21T09:27:04;100173.91;;;30.80;37.33
60676;BME280;46716;38.014;-7.874;2022-08-21T09:29:02;100162.03;;;30.88;36.29
60676;BME280;46716;38.014;-7.874;2022-08-21T09:31:07;100159.03;;;30.83;35.41
60676;BME280;46716;38.014;-7.874;2022-08-21T09:33:11;100159.03;;;30.83;36.22
60676;BME280;46716;38.014;-7.874;2022-08-21T09:52:45;100123.25;;;31.28;36.05
60676;BME280;46716;38.014;-7.874;2022-08-21T09:54:53;100132.50;;;31.83;35.71
60676;BME280;46716;38.014;-7.874;2022-08-21T09:56:58;100160.13;;;32.35;35.68
60676;BME280;46716;38.014;-7.874;2022-08-21T10:04:27;100134.06;;;33.00;33.46
60676;BME280;46716;38.014;-7.874;2022-08-21T10:06:32;100144.50;;;33.30;33.28
60676;BME280;46716;38.014;-7.874;2022-08-21T10:10:51;100150.09;;;33.63;30.18
60676;BME280;46716;38.014;-7.874;2022-08-21T10:13:21;100138.09;;;33.57;30.69
60676;BME280;46716;38.014;-7.874;2022-08-21T10:17:52;100157.03;;;34.04;29.81
60676;BME280;46716;38.014;-7.874;2022-08-21T10:38:38;100130.97;;;34.78;29.89
60676;BME280;46716;38.014;-7.874;2022-08-21T10:44:28;100126.50;;;35.03;28.34
60676;BME280;46716;38.014;-7.874;2022-08-21T11:02:42;100109.91;;;35.97;26.77
60676;BME280;46716;38.014;-7.874;2022-08-21T11:08:39;100098.38;;;36.18;26.38
60676;BME280;46716;38.014;-7.874;2022-08-21T11:17:47;100094.25;;;36.40;26.88
60676;BME280;46716;38.014;-7.874;2022-08-21T11:40:04;100064.38;;;37.79;23.56
60676;BME280;46716;38.014;-7.874;2022-08-21T12:02:33;100022.63;;;39.01;21.95
60676;BME280;46716;38.014;-7.874;2022-08-21T12:04:45;100029.84;;;39.29;22.13
60676;BME280;46716;38.014;-7.874;2022-08-21T12:14:19;100013.41;;;40.05;20.91
60676;BME280;46716;38.014;-7.874;2022-08-21T12:16:40;100006.56;;;40.13;20.72
60676;BME280;46716;38.014;-7.874;2022-08-21T12:18:42;100013.28;;;40.28;20.65
60676;BME280;46716;38.014;-7.874;2022-08-21T12:21:16;100018.03;;;40.38;20.22
60676;BME280;46716;38.014;-7.874;2022-08-21T12:27:46;100002.97;;;40.13;19.90
60676;BME280;46716;38.014;-7.874;2022-08-21T12:29:50;99996.34;;;40.14;19.23
60676;BME280;46716;38.014;-7.874;2022-08-21T12:38:18;99985.41;;;39.96;18.80
60676;BME280;46716;38.014;-7.874;2022-08-21T12:40:23;99980.13;;;39.95;19.82
60676;BME280;46716;38.014;-7.874;2022-08-21T12:49:46;99981.09;;;40.54;20.03
60676;BME280;46716;38.014;-7.874;2022-08-21T12:55:28;99976.81;;;40.36;18.89
60676;BME280;46716;38.014;-7.874;2022-08-21T12:57:30;99979.81;;;40.24;19.28
60676;BME280;46716;38.014;-7.874;2022-08-21T12:59:31;99963.75;;;40.21;19.06
60676;BME280;46716;38.014;-7.874;2022-08-21T13:08:12;99951.84;;;40.79;19.10
60676;BME280;46716;38.014;-7.874;2022-08-21T13:13:47;99946.31;;;40.90;17.59
60676;BME280;46716;38.014;-7.874;2022-08-21T13:19:39;99949.47;;;40.45;19.10
60676;BME280;46716;38.014;-7.874;2022-08-21T13:40:19;99930.75;;;40.63;18.22
60676;BME280;46716;38.014;-7.874;2022-08-21T13:42:22;99934.94;;;40.70;18.39
60676;BME280;46716;38.014;-7.874;2022-08-21T13:47:54;99913.66;;;40.87;17.88
60676;BME280;46716;38.014;-7.874;2022-08-21T13:55:45;99905.00;;;40.62;17.88
60676;BME280;46716;38.014;-7.874;2022-08-21T13:57:46;99900.06;;;40.69;19.01
60676;BME280;46716;38.014;-7.874;2022-08-21T14:06:45;99893.22;;;40.93;18.34
60676;BME280;46716;38.014;-7.874;2022-08-21T14:08:56;99900.91;;;40.80;17.79
60676;BME280;46716;38.014;-7.874;2022-08-21T14:21:32;99872.06;;;40.55;18.98